Time;durP1;ratioP1;P1;durP2;ratioP2;P2;SDS_P1;SDS_P2;PMS_P1;PMS_P2;Temp;Humidity;BMP_temperature;BMP_pressure;BME280_temperature;BME280_humidity;BME280_pressure;Samples;Min_cycle;Max_cycle;Signal;HPM_P1;HPM_P2
2023/08/26 00:02:19;;;;;;;3.50;3.20;;;20.10;75.70;;;;;;6226927;28;20275;-79
2023/08/26 00:05:23;;;;;;;8.87;4.00;;;20.30;75.50;;;;;;6218576;28;20239;-81
2023/08/26 00:08:26;;;;;;;3.40;3.30;;;20.30;75.20;;;;;;6210691;28;20826;-81
2023/08/26 00:11:29;;;;;;;3.67;3.33;;;20.30;75.10;;;;;;6210336;28;20235;-79
2023/08/26 00:14:33;;;;;;;3.57;3.40;;;20.30;74.90;;;;;;6218146;28;20873;-81
2023/08/26 00:17:36;;;;;;;3.47;3.30;;;20.30;74.80;;;;;;6214897;28;20446;-80
2023/08/26 00:20:40;;;;;;;3.60;3.30;;;20.30;74.80;;;;;;6207279;28;20338;-80
2023/08/26 00:23:43;;;;;;;3.83;3.57;;;20.30;74.70;;;;;;6205570;28;20257;-81
2023/08/26 00:26:47;;;;;;;4.03;3.60;;;20.10;74.90;;;;;;6215331;28;20231;-81
2023/08/26 00:29:51;;;;;;;3.90;3.63;;;20.10;75.10;;;;;;6205706;28;20250;-79
2023/08/26 00:32:54;;;;;;;3.60;3.40;;;20.10;75.20;;;;;;6200297;28;20329;-80
2023/08/26 00:35:58;;;;;;;3.80;3.70;;;20.00;75.50;;;;;;6223446;28;20235;-81
2023/08/26 00:39:02;;;;;;;4.03;3.73;;;20.00;75.60;;;;;;6207209;28;20254;-80
2023/08/26 00:42:05;;;;;;;3.80;3.60;;;20.00;75.40;;;;;;6191048;28;20302;-79
2023/08/26 00:45:10;;;;;;;3.60;3.40;;;20.00;75.50;;;;;;6213954;28;20227;-80
2023/08/26 00:48:14;;;;;;;3.70;3.50;;;20.00;75.50;;;;;;6206891;28;20262;-81
2023/08/26 00:51:19;;;;;;;3.57;3.47;;;20.00;75.50;;;;;;6202223;28;20243;-81
2023/08/26 00:54:22;;;;;;;3.83;3.53;;;19.90;75.70;;;;;;6206830;28;20242;-82
2023/08/26 00:57:25;;;;;;;3.73;3.53;;;19.90;75.70;;;;;;6207839;28;20325;-79
2023/08/26 01:00:30;;;;;;;3.67;3.27;;;19.90;75.70;;;;;;6210974;28;20227;-81
2023/08/26 01:03:34;;;;;;;3.93;3.63;;;19.90;75.70;;;;;;6204600;28;20858;-80
2023/08/26 01:06:37;;;;;;;3.63;3.50;;;19.90;75.50;;;;;;6207678;28;20235;-79
2023/08/26 01:09:40;;;;;;;3.30;3.20;;;19.80;75.50;;;;;;6212497;28;20244;-81
2023/08/26 01:12:51;;;;;;;3.00;3.00;;;19.70;75.50;;;;;;6208179;28;20246;-79
2023/08/26 01:15:57;;;;;;;3.80;3.50;;;19.80;75.40;;;;;;6209984;28;20682;-82
2023/08/26 01:19:02;;;;;;;3.20;3.10;;;19.90;75.30;;;;;;6202981;28;20244;-80
2023/08/26 01:22:07;;;;;;;3.43;3.13;;;19.90;75.20;;;;;;6206906;28;20239;-82
2023/08/26 01:25:12;;;;;;;3.23;3.10;;;19.90;75.20;;;;;;6202341;28;20317;-82
2023/08/26 01:28:15;;;;;;;3.80;3.60;;;19.90;75.10;;;;;;6203550;28;20749;-80
2023/08/26 01:31:21;;;;;;;5.10;4.70;;;19.90;75.10;;;;;;6214538;28;20246;-82
2023/08/26 01:34:26;;;;;;;4.40;4.20;;;19.80;75.40;;;;;;6209385;28;20278;-81
2023/08/26 01:37:30;;;;;;;3.43;3.33;;;19.80;75.30;;;;;;6194322;28;20753;-80
2023/08/26 01:40:35;;;;;;;3.80;3.43;;;19.80;75.40;;;;;;6224740;28;20887;-82
2023/08/26 01:43:39;;;;;;;3.20;3.10;;;19.70;75.40;;;;;;6197948;28;20325;-79
2023/08/26 01:46:43;;;;;;;4.10;3.40;;;19.70;75.60;;;;;;6197543;28;20894;-80
2023/08/26 01:49:46;;;;;;;3.83;3.53;;;19.70;75.50;;;;;;6209034;28;20399;-81
2023/08/26 01:52:49;;;;;;;3.43;3.23;;;19.70;75.50;;;;;;6210311;28;20282;-79
2023/08/26 01:55:54;;;;;;;3.77;3.40;;;19.70;75.70;;;;;;6216495;28;20297;-79
2023/08/26 01:58:57;;;;;;;3.23;3.13;;;19.70;75.60;;;;;;6199487;28;20239;-81
2023/08/26 02:02:01;;;;;;;3.73;3.53;;;19.60;75.80;;;;;;6203441;28;20334;-79
2023/08/26 02:05:04;;;;;;;3.47;3.27;;;19.60;75.80;;;;;;6199756;28;20242;-79
2023/08/26 02:08:07;;;;;;;3.37;3.27;;;19.50;75.80;;;;;;6206936;28;20250;-80
2023/08/26 02:11:12;;;;;;;3.40;3.30;;;19.50;75.50;;;;;;6198922;28;20314;-80
2023/08/26 02:14:15;;;;;;;3.30;3.10;;;19.50;75.50;;;;;;6199174;28;20944;-83
2023/08/26 02:17:18;;;;;;;3.70;3.50;;;19.60;75.40;;;;;;6204604;28;20298;-82
2023/08/26 02:20:21;;;;;;;4.97;3.40;;;19.60;75.20;;;;;;6209591;28;20322;-80
2023/08/26 02:23:24;;;;;;;3.60;3.50;;;19.60;75.20;;;;;;6206259;28;20249;-80
2023/08/26 02:26:29;;;;;;;3.20;3.10;;;19.50;75.30;;;;;;6216149;28;20608;-82
2023/08/26 02:29:32;;;;;;;4.93;3.80;;;19.60;75.30;;;;;;6207445;28;20255;-83
2023/08/26 02:32:35;;;;;;;4.07;3.77;;;19.60;75.20;;;;;;6216103;28;20345;-82
2023/08/26 02:35:39;;;;;;;3.20;3.03;;;19.60;75.10;;;;;;6210876;28;20238;-79
2023/08/26 02:38:42;;;;;;;3.50;3.17;;;19.60;75.20;;;;;;6212408;28;20778;-81
2023/08/26 02:41:46;;;;;;;3.57;3.33;;;19.60;75.20;;;;;;6210715;28;20243;-79
2023/08/26 02:44:49;;;;;;;4.27;3.93;;;19.50;75.20;;;;;;6215449;28;20390;-81
2023/08/26 02:47:52;;;;;;;4.27;3.73;;;19.50;75.30;;;;;;6211073;28;20239;-79
2023/08/26 02:50:56;;;;;;;3.80;3.60;;;19.50;75.30;;;;;;6206955;28;20247;-80
2023/08/26 02:53:59;;;;;;;4.23;3.40;;;19.50;75.50;;;;;;6199835;28;20243;-81
2023/08/26 02:57:04;;;;;;;3.63;3.43;;;19.50;75.50;;;;;;6191523;28;20236;-80
2023/08/26 03:00:09;;;;;;;4.47;4.17;;;19.50;75.50;;;;;;6207355;28;20818;-81
2023/08/26 03:03:12;;;;;;;3.53;3.30;;;19.50;75.50;;;;;;6203679;28;20319;-81
2023/08/26 03:06:16;;;;;;;3.53;3.43;;;19.50;75.50;;;;;;6206933;28;20247;-79
2023/08/26 03:09:19;;;;;;;3.43;3.23;;;19.50;75.50;;;;;;6198549;28;20240;-81
2023/08/26 03:12:24;;;;;;;3.70;3.50;;;19.50;75.50;;;;;;6208172;28;20239;-80
2023/08/26 03:15:28;;;;;;;4.00;3.80;;;19.50;75.60;;;;;;6205232;28;20324;-81
2023/08/26 03:18:31;;;;;;;4.10;3.87;;;19.50;75.70;;;;;;6201409;28;20327;-80
2023/08/26 03:21:34;;;;;;;4.13;3.80;;;19.50;75.60;;;;;;6211153;28;20392;-79
2023/08/26 03:24:39;;;;;;;4.17;3.77;;;19.40;75.90;;;;;;6208948;28;20362;-80
2023/08/26 03:27:44;;;;;;;4.13;4.03;;;19.40;75.90;;;;;;6205114;28;20765;-80
2023/08/26 03:30:47;;;;;;;4.40;4.13;;;19.40;76.10;;;;;;6197246;28;20243;-79
2023/08/26 03:33:52;;;;;;;3.90;3.60;;;19.30;76.30;;;;;;6197376;28;20321;-81
2023/08/26 03:36:55;;;;;;;4.60;4.27;;;19.30;76.50;;;;;;6218454;28;20322;-81
2023/08/26 03:39:59;;;;;;;4.53;4.13;;;19.30;76.70;;;;;;6212608;28;20803;-79
2023/08/26 03:43:04;;;;;;;4.37;4.07;;;19.30;76.60;;;;;;6206330;28;20658;-80
2023/08/26 03:46:07;;;;;;;4.67;4.37;;;19.20;76.60;;;;;;6214870;28;20638;-78
2023/08/26 03:49:11;;;;;;;5.00;4.57;;;19.20;76.70;;;;;;6199845;28;20849;-81
2023/08/26 03:52:17;;;;;;;4.40;4.07;;;19.20;76.70;;;;;;6198774;28;20904;-78
2023/08/26 03:55:20;;;;;;;5.37;4.83;;;19.20;76.70;;;;;;6218580;28;20289;-79
2023/08/26 03:58:26;;;;;;;5.10;4.70;;;19.10;77.20;;;;;;6210093;28;20458;-80
2023/08/26 04:01:31;;;;;;;4.77;4.43;;;19.10;77.50;;;;;;6206190;28;20932;-78
2023/08/26 04:04:34;;;;;;;4.27;3.97;;;19.10;77.50;;;;;;6207740;28;20234;-79
2023/08/26 04:07:37;;;;;;;4.73;4.33;;;19.10;77.50;;;;;;6183896;28;20803;-80
2023/08/26 04:10:40;;;;;;;4.83;4.43;;;19.20;77.30;;;;;;6189236;28;20239;-79
2023/08/26 04:13:46;;;;;;;7.87;7.10;;;19.10;77.30;;;;;;6184540;28;20810;-80
2023/08/26 04:16:50;;;;;;;6.17;5.67;;;19.20;77.10;;;;;;6195557;28;20244;-80
2023/08/26 04:19:53;;;;;;;4.73;4.43;;;19.20;77.10;;;;;;6205617;28;20316;-80
2023/08/26 04:22:56;;;;;;;4.17;3.77;;;19.10;77.10;;;;;;6204174;28;20242;-80
2023/08/26 04:26:02;;;;;;;5.13;4.83;;;19.20;77.20;;;;;;6214012;28;20321;-78
2023/08/26 04:29:07;;;;;;;5.40;5.00;;;19.20;76.90;;;;;;6203315;28;20235;-77
2023/08/26 04:32:10;;;;;;;4.70;4.47;;;19.20;76.90;;;;;;6205038;28;20318;-80
2023/08/26 04:35:16;;;;;;;5.50;4.00;;;19.10;77.20;;;;;;6213639;28;20240;-79
2023/08/26 04:38:20;;;;;;;5.40;4.90;;;19.10;77.30;;;;;;6202109;28;20238;-79
2023/08/26 04:41:23;;;;;;;5.77;5.27;;;19.10;77.50;;;;;;6206009;28;20246;-80
2023/08/26 04:44:28;;;;;;;4.63;4.33;;;19.10;77.60;;;;;;6195604;28;20235;-80
2023/08/26 04:47:31;;;;;;;10.03;4.97;;;19.10;77.80;;;;;;6206314;28;20235;-79
2023/08/26 04:50:34;;;;;;;6.37;5.00;;;19.00;77.90;;;;;;6208285;28;20773;-80
2023/08/26 04:53:37;;;;;;;4.80;4.40;;;19.00;78.20;;;;;;6209103;28;20322;-81
2023/08/26 04:56:40;;;;;;;4.20;4.00;;;19.00;78.40;;;;;;6213765;28;20242;-79
2023/08/26 04:59:46;;;;;;;5.63;4.53;;;19.00;78.40;;;;;;6212516;28;20727;-81
2023/08/26 05:02:49;;;;;;;5.50;5.20;;;19.00;78.60;;;;;;6211734;28;20687;-79
2023/08/26 05:05:53;;;;;;;5.60;5.23;;;19.00;78.70;;;;;;6203556;28;20880;-79
2023/08/26 05:08:56;;;;;;;9.53;8.80;;;19.00;79.10;;;;;;6202633;28;20776;-79
2023/08/26 05:11:59;;;;;;;5.83;5.33;;;19.00;79.30;;;;;;6212017;28;20243;-81
2023/08/26 05:15:04;;;;;;;5.97;5.50;;;19.10;79.10;;;;;;6212240;28;20645;-79
2023/08/26 05:18:07;;;;;;;5.13;4.73;;;19.10;79.10;;;;;;6216513;28;20328;-79
2023/08/26 05:21:11;;;;;;;7.30;6.60;;;19.20;79.20;;;;;;6217358;28;20307;-81
2023/08/26 05:24:14;;;;;;;5.70;5.20;;;19.20;79.20;;;;;;6209653;28;20239;-80
2023/08/26 05:27:17;;;;;;;5.97;5.57;;;19.20;79.30;;;;;;6211863;28;20298;-77
2023/08/26 05:30:22;;;;;;;5.33;4.93;;;19.30;79.20;;;;;;6205528;28;20652;-79
2023/08/26 05:33:25;;;;;;;5.83;5.33;;;19.30;79.20;;;;;;6205938;28;20270;-78
2023/08/26 05:36:28;;;;;;;5.20;4.90;;;19.40;79.10;;;;;;6210415;28;20748;-80
2023/08/26 05:39:31;;;;;;;6.30;5.90;;;19.40;79.10;;;;;;6201823;28;20393;-80
2023/08/26 05:42:34;;;;;;;5.67;5.37;;;19.40;79.60;;;;;;6213765;28;20243;-79
2023/08/26 05:45:39;;;;;;;6.13;5.47;;;19.40;79.70;;;;;;6217548;28;20243;-79
2023/08/26 05:48:42;;;;;;;6.57;6.07;;;19.50;79.60;;;;;;6207404;28;20243;-79
2023/08/26 05:51:45;;;;;;;6.17;5.60;;;19.40;80.00;;;;;;6215823;28;20781;-79
2023/08/26 05:54:48;;;;;;;5.43;5.07;;;19.40;80.10;;;;;;6211244;28;20247;-78
2023/08/26 05:57:52;;;;;;;5.23;4.83;;;19.50;80.10;;;;;;6211810;28;20707;-78
2023/08/26 06:00:56;;;;;;;5.60;5.03;;;19.50;79.90;;;;;;6215332;28;20955;-80
2023/08/26 06:04:01;;;;;;;5.90;5.50;;;19.70;79.70;;;;;;6210947;28;20329;-78
2023/08/26 06:07:04;;;;;;;6.63;6.23;;;19.70;79.30;;;;;;6215116;28;20242;-76
2023/08/26 06:10:08;;;;;;;6.53;5.80;;;19.70;79.20;;;;;;6209134;28;20238;-78
2023/08/26 06:13:11;;;;;;;7.63;6.93;;;19.50;79.70;;;;;;6218847;28;20324;-80
2023/08/26 06:16:19;;;;;;;8.70;6.10;;;19.70;79.50;;;;;;6212185;28;20243;-76
2023/08/26 06:19:22;;;;;;;6.47;5.97;;;19.60;79.50;;;;;;6216760;28;20712;-79
2023/08/26 06:22:25;;;;;;;6.70;6.07;;;19.50;79.90;;;;;;6197462;28;20251;-83
2023/08/26 06:25:28;;;;;;;8.37;6.80;;;19.60;79.70;;;;;;6213801;28;20238;-80
2023/08/26 06:28:31;;;;;;;7.03;6.50;;;19.50;79.80;;;;;;6211452;28;20270;-81
2023/08/26 06:31:36;;;;;;;7.20;6.60;;;19.50;79.70;;;;;;6208372;28;20349;-81
2023/08/26 06:34:39;;;;;;;6.97;6.10;;;19.60;79.90;;;;;;6217248;28;20243;-81
2023/08/26 06:37:42;;;;;;;6.80;6.30;;;19.70;79.80;;;;;;6207562;28;20240;-78
2023/08/26 06:40:52;;;;;;;5.97;5.40;;;19.70;79.80;;;;;;6209578;28;20255;-81
2023/08/26 06:43:56;;;;;;;6.57;5.67;;;19.90;79.70;;;;;;6211613;28;20235;-82
2023/08/26 06:47:00;;;;;;;5.33;5.10;;;20.00;79.50;;;;;;6202365;28;20870;-81
2023/08/26 06:50:05;;;;;;;6.50;6.10;;;20.00;79.40;;;;;;6207243;28;20712;-83
2023/08/26 06:53:09;;;;;;;6.73;6.30;;;20.10;79.20;;;;;;6215443;28;20239;-79
2023/08/26 06:56:12;;;;;;;6.37;5.83;;;20.10;79.20;;;;;;6206135;28;20341;-82
2023/08/26 06:59:15;;;;;;;8.10;7.40;;;20.10;79.20;;;;;;6211662;28;20402;-80
2023/08/26 07:02:19;;;;;;;9.73;8.07;;;20.20;79.10;;;;;;6207951;28;20344;-80
2023/08/26 07:05:23;;;;;;;7.97;7.30;;;20.30;79.00;;;;;;6215392;28;20260;-83
2023/08/26 07:08:26;;;;;;;6.93;6.33;;;20.20;79.20;;;;;;6202617;28;20767;-83
2023/08/26 07:11:29;;;;;;;8.97;8.37;;;20.30;79.00;;;;;;6210347;28;20246;-82
2023/08/26 07:14:32;;;;;;;8.00;7.43;;;20.30;79.00;;;;;;6204216;28;20609;-79
2023/08/26 07:17:37;;;;;;;6.83;6.43;;;20.30;78.90;;;;;;6216150;28;20279;-82
2023/08/26 07:20:40;;;;;;;10.00;7.73;;;20.20;79.60;;;;;;6204093;28;20239;-79
2023/08/26 07:23:43;;;;;;;7.53;6.80;;;20.30;79.40;;;;;;6213401;28;20270;-82
2023/08/26 07:26:47;;;;;;;7.40;6.80;;;20.40;79.30;;;;;;6203891;28;20238;-81
2023/08/26 07:29:50;;;;;;;7.00;6.50;;;20.50;79.20;;;;;;6207908;28;20827;-82
2023/08/26 07:32:55;;;;;;;8.30;7.70;;;20.60;78.80;;;;;;6211360;28;20244;-80
2023/08/26 07:36:03;;;;;;;8.77;7.77;;;20.70;78.20;;;;;;6213265;28;20231;-77
2023/08/26 07:39:06;;;;;;;8.80;8.10;;;20.70;77.90;;;;;;6212439;28;20691;-79
2023/08/26 07:42:09;;;;;;;8.50;7.90;;;20.60;78.50;;;;;;6211804;28;20367;-79
2023/08/26 07:45:12;;;;;;;9.03;8.10;;;20.50;79.10;;;;;;6212701;28;20336;-84
2023/08/26 07:48:17;;;;;;;11.70;10.50;;;20.50;79.00;;;;;;6209113;28;20239;-81
2023/08/26 07:51:23;;;;;;;8.33;7.93;;;20.50;79.70;;;;;;6211441;28;20271;-83
2023/08/26 07:54:26;;;;;;;9.07;8.17;;;20.60;79.70;;;;;;6211352;28;20259;-80
2023/08/26 07:57:29;;;;;;;7.80;7.20;;;20.60;79.70;;;;;;6208980;28;20359;-81
2023/08/26 08:00:35;;;;;;;8.53;7.83;;;20.70;79.60;;;;;;6205831;28;20748;-80
2023/08/26 08:03:39;;;;;;;8.60;7.87;;;20.80;79.30;;;;;;6200948;28;20235;-82
2023/08/26 08:06:43;;;;;;;7.87;7.23;;;20.80;79.20;;;;;;6212511;28;20235;-81
2023/08/26 08:09:46;;;;;;;8.60;8.00;;;20.80;79.70;;;;;;6217156;28;20377;-83
2023/08/26 08:12:49;;;;;;;10.13;9.13;;;20.90;79.80;;;;;;6202208;28;20370;-80
2023/08/26 08:15:52;;;;;;;10.43;9.53;;;20.80;79.40;;;;;;6206931;28;20239;-81
2023/08/26 08:18:56;;;;;;;9.87;9.17;;;20.60;80.10;;;;;;6209807;28;20322;-82
2023/08/26 08:22:00;;;;;;;9.90;9.17;;;20.50;80.30;;;;;;6208372;28;20239;-79
2023/08/26 08:25:03;;;;;;;8.50;8.00;;;20.60;80.30;;;;;;6212896;28;20350;-83
2023/08/26 08:28:07;;;;;;;9.40;8.37;;;20.70;80.40;;;;;;6215789;28;20326;-81
2023/08/26 08:31:10;;;;;;;10.13;9.40;;;20.80;79.90;;;;;;6214838;28;20246;-83
2023/08/26 08:34:15;;;;;;;10.00;9.30;;;20.80;79.70;;;;;;6215440;28;20227;-83
2023/08/26 08:37:20;;;;;;;10.03;9.10;;;20.90;79.80;;;;;;6208561;28;20232;-83
2023/08/26 08:40:23;;;;;;;12.27;10.30;;;20.90;79.80;;;;;;6212690;28;20244;-81
2023/08/26 08:43:30;;;;;;;11.10;9.97;;;20.90;79.30;;;;;;6212124;28;20254;-80
2023/08/26 08:46:33;;;;;;;10.27;9.47;;;20.90;79.50;;;;;;6201909;28;20716;-80
2023/08/26 08:49:38;;;;;;;10.60;9.53;;;20.90;79.90;;;;;;6199730;28;20933;-81
2023/08/26 08:52:45;;;;;;;10.03;9.37;;;21.10;78.90;;;;;;6203278;28;20238;-83
2023/08/26 08:55:48;;;;;;;9.87;9.07;;;21.10;78.20;;;;;;6211973;28;20607;-81
2023/08/26 08:58:53;;;;;;;10.03;8.93;;;21.30;78.00;;;;;;6204387;28;20290;-79
2023/08/26 09:01:58;;;;;;;9.30;8.60;;;21.50;77.50;;;;;;6200370;28;20735;-82
2023/08/26 09:05:03;;;;;;;10.00;9.10;;;21.30;78.10;;;;;;6207561;28;20243;-82
2023/08/26 09:08:09;;;;;;;9.70;9.10;;;21.40;78.10;;;;;;6210420;28;20250;-81
2023/08/26 09:11:13;;;;;;;8.90;8.20;;;21.50;77.70;;;;;;6214227;28;20373;-81
2023/08/26 09:14:16;;;;;;;7.50;7.17;;;21.70;77.30;;;;;;6209001;28;20249;-82
2023/08/26 09:17:20;;;;;;;7.73;7.33;;;21.90;76.80;;;;;;6212908;28;20243;-81
2023/08/26 09:20:26;;;;;;;6.80;6.50;;;21.90;76.40;;;;;;6203499;28;20250;-81
2023/08/26 09:23:29;;;;;;;7.60;7.13;;;21.90;76.10;;;;;;6201514;28;20639;-84
2023/08/26 09:26:32;;;;;;;6.87;6.47;;;22.10;76.10;;;;;;6205092;28;20828;-82
2023/08/26 09:29:38;;;;;;;7.17;6.70;;;22.50;74.90;;;;;;6219614;28;20375;-82
2023/08/26 09:32:45;;;;;;;6.03;5.73;;;22.50;74.40;;;;;;6203932;28;20254;-81
2023/08/26 09:35:49;;;;;;;7.07;6.57;;;22.50;74.40;;;;;;6209739;28;20235;-80
2023/08/26 09:38:55;;;;;;;6.73;6.13;;;22.60;72.50;;;;;;6214698;28;20365;-82
2023/08/26 09:41:59;;;;;;;9.13;8.43;;;22.50;73.30;;;;;;6199273;28;20764;-80
2023/08/26 09:45:03;;;;;;;8.73;8.23;;;22.40;73.20;;;;;;6229487;28;20258;-80
2023/08/26 09:48:07;;;;;;;10.63;9.20;;;22.30;72.90;;;;;;6210827;28;20271;-79
2023/08/26 09:51:11;;;;;;;8.27;7.60;;;22.30;73.00;;;;;;6206586;28;20231;-83
2023/08/26 09:54:17;;;;;;;8.43;7.83;;;22.60;72.30;;;;;;6213844;28;20231;-81
2023/08/26 09:57:20;;;;;;;9.10;8.40;;;23.00;71.60;;;;;;6212994;28;20374;-79
2023/08/26 10:00:23;;;;;;;9.33;8.60;;;22.90;71.50;;;;;;6207824;28;20285;-81
2023/08/26 10:03:28;;;;;;;8.40;7.70;;;23.10;71.20;;;;;;6214847;28;20239;-81
2023/08/26 10:06:37;;;;;;;7.70;7.20;;;23.30;70.10;;;;;;6216360;28;20854;-82
2023/08/26 10:09:44;;;;;;;9.07;8.37;;;23.50;70.10;;;;;;6215706;28;20866;-80
2023/08/26 10:12:51;;;;;;;8.97;8.27;;;23.60;68.70;;;;;;6215302;28;20855;-80
2023/08/26 10:15:57;;;;;;;8.83;8.23;;;23.70;69.20;;;;;;6207648;28;20755;-80
2023/08/26 10:19:04;;;;;;;10.63;9.70;;;23.80;68.20;;;;;;6211203;28;20390;-79
2023/08/26 10:22:10;;;;;;;10.40;9.60;;;23.40;68.20;;;;;;6216937;28;20243;-78
2023/08/26 10:25:14;;;;;;;11.00;9.90;;;23.40;67.50;;;;;;6207750;28;20238;-82
2023/08/26 10:28:19;;;;;;;11.27;10.17;;;23.40;67.60;;;;;;6213347;28;20242;-81
2023/08/26 10:31:31;;;;;;;13.53;10.03;;;23.60;67.70;;;;;;6205996;28;20235;-80
2023/08/26 10:34:34;;;;;;;10.83;10.00;;;23.80;67.00;;;;;;6207822;28;20615;-80
2023/08/26 10:37:40;;;;;;;12.23;11.23;;;23.80;66.10;;;;;;6208872;28;20285;-78
2023/08/26 10:40:43;;;;;;;13.10;11.40;;;23.60;66.50;;;;;;6214779;28;20250;-79
2023/08/26 10:43:52;;;;;;;12.37;10.83;;;23.60;65.70;;;;;;6210248;28;20240;-82
2023/08/26 10:46:57;;;;;;;9.87;9.07;;;23.80;65.90;;;;;;6205473;28;20255;-81
2023/08/26 10:50:14;;;;;;;9.27;8.47;;;23.80;65.90;;;;;;6213644;28;20546;-79
2023/08/26 10:53:19;;;;;;;9.70;8.70;;;24.20;65.10;;;;;;6211597;28;20231;-80
2023/08/26 10:56:27;;;;;;;10.07;9.37;;;24.50;63.80;;;;;;6215066;28;20235;-80
2023/08/26 10:59:36;;;;;;;9.60;8.67;;;24.50;63.60;;;;;;6211393;28;20258;-80
2023/08/26 11:02:40;;;;;;;9.27;8.50;;;24.60;62.90;;;;;;6218561;28;20275;-81
2023/08/26 11:05:45;;;;;;;8.83;8.00;;;24.10;62.50;;;;;;6212703;28;20284;-79
2023/08/26 11:08:57;;;;;;;9.50;8.63;;;24.20;62.60;;;;;;6215087;28;20367;-80
2023/08/26 11:12:03;;;;;;;10.40;9.40;;;24.40;63.00;;;;;;6219814;28;20235;-81
2023/08/26 11:15:07;;;;;;;10.07;9.17;;;24.50;62.60;;;;;;6207365;28;20295;-82
2023/08/26 11:18:11;;;;;;;8.50;8.00;;;24.70;62.10;;;;;;6209528;28;20310;-83
2023/08/26 11:21:15;;;;;;;10.30;8.17;;;24.70;61.70;;;;;;6208229;28;20853;-79
2023/08/26 11:24:30;;;;;;;9.00;7.90;;;25.00;60.60;;;;;;6210610;28;20329;-82
2023/08/26 11:27:34;;;;;;;8.60;7.67;;;25.00;60.20;;;;;;6212865;28;20275;-80
2023/08/26 11:30:38;;;;;;;7.47;6.83;;;25.30;60.30;;;;;;6215167;28;20239;-81
2023/08/26 11:33:41;;;;;;;7.43;6.80;;;25.40;58.90;;;;;;6210303;28;20246;-79
2023/08/26 11:36:44;;;;;;;6.27;5.93;;;25.30;57.60;;;;;;6211264;28;20776;-81
2023/08/26 11:39:50;;;;;;;6.30;5.83;;;25.10;58.10;;;;;;6203475;28;20265;-83
2023/08/26 11:42:56;;;;;;;7.63;6.87;;;24.70;58.00;;;;;;6198908;28;20854;-82
2023/08/26 11:46:01;;;;;;;6.87;6.47;;;24.40;59.00;;;;;;6203969;28;20239;-82
2023/08/26 11:49:05;;;;;;;11.80;9.03;;;24.40;59.30;;;;;;6207286;28;20334;-81
2023/08/26 11:52:08;;;;;;;7.90;6.47;;;24.50;58.90;;;;;;6210749;28;20318;-80
2023/08/26 11:55:13;;;;;;;6.60;6.00;;;24.70;58.80;;;;;;6198671;28;20259;-80
2023/08/26 11:58:16;;;;;;;6.90;6.17;;;25.00;58.20;;;;;;6207198;28;20794;-78
2023/08/26 12:01:19;;;;;;;6.10;5.70;;;25.20;58.20;;;;;;6201751;28;20322;-82
2023/08/26 12:04:23;;;;;;;5.47;5.17;;;25.30;56.50;;;;;;6211481;28;20322;-80
2023/08/26 12:07:29;;;;;;;6.03;5.50;;;25.50;56.10;;;;;;6214813;28;20716;-82
2023/08/26 12:10:33;;;;;;;5.90;5.43;;;25.60;55.70;;;;;;6194399;28;20255;-84
2023/08/26 12:13:38;;;;;;;5.30;5.00;;;25.80;56.10;;;;;;6209044;28;20235;-82
2023/08/26 12:16:42;;;;;;;6.23;5.70;;;25.80;56.20;;;;;;6202439;28;20324;-82
2023/08/26 12:19:45;;;;;;;5.97;5.47;;;25.80;56.00;;;;;;6204133;28;20239;-80
2023/08/26 12:22:49;;;;;;;7.63;5.93;;;25.50;57.40;;;;;;6205973;28;20262;-79
2023/08/26 12:25:53;;;;;;;6.53;5.37;;;25.30;57.80;;;;;;6207366;28;20261;-80
2023/08/26 12:28:57;;;;;;;5.97;5.50;;;25.40;57.10;;;;;;6210516;28;20794;-81
2023/08/26 12:32:02;;;;;;;5.43;5.00;;;25.40;56.30;;;;;;6207919;28;20275;-82
2023/08/26 12:35:08;;;;;;;5.27;4.80;;;25.30;56.70;;;;;;6205685;28;20239;-79
2023/08/26 12:38:11;;;;;;;5.33;5.03;;;25.40;56.20;;;;;;6203201;28;20713;-82
2023/08/26 12:41:16;;;;;;;6.13;5.57;;;25.40;56.30;;;;;;6210912;28;20833;-80
2023/08/26 12:44:19;;;;;;;5.27;5.07;;;25.50;56.20;;;;;;6200755;28;20310;-81
2023/08/26 12:47:22;;;;;;;5.30;4.97;;;25.60;56.10;;;;;;6210678;28;20315;-82
2023/08/26 12:50:25;;;;;;;5.10;4.90;;;25.50;56.20;;;;;;6208220;28;20778;-82
2023/08/26 12:53:28;;;;;;;5.47;5.10;;;25.50;56.00;;;;;;6208227;28;20250;-80
2023/08/26 12:56:33;;;;;;;5.30;4.93;;;25.50;56.10;;;;;;6209048;28;20834;-80
2023/08/26 12:59:36;;;;;;;5.63;5.33;;;25.60;55.70;;;;;;6205249;28;20857;-83
2023/08/26 13:02:40;;;;;;;5.43;5.00;;;25.60;55.50;;;;;;6217795;28;20321;-82
2023/08/26 13:05:44;;;;;;;5.50;5.07;;;25.80;55.30;;;;;;6224755;28;20357;-79
2023/08/26 13:08:47;;;;;;;4.70;4.50;;;25.50;55.70;;;;;;6210854;28;20273;-80
2023/08/26 13:11:53;;;;;;;6.93;5.00;;;25.60;55.50;;;;;;6201864;28;20251;-79
2023/08/26 13:14:56;;;;;;;5.23;4.80;;;25.50;54.60;;;;;;6201303;28;20613;-80
2023/08/26 13:17:59;;;;;;;7.77;5.30;;;25.30;55.70;;;;;;6218829;28;20341;-82
2023/08/26 13:21:03;;;;;;;5.47;5.13;;;25.40;56.20;;;;;;6200472;28;20266;-81
2023/08/26 13:24:07;;;;;;;5.23;4.97;;;25.60;56.20;;;;;;6199928;28;20240;-81
2023/08/26 13:27:12;;;;;;;4.57;4.37;;;25.60;55.50;;;;;;6200675;28;20793;-82
2023/08/26 13:30:15;;;;;;;5.33;5.13;;;25.80;56.60;;;;;;6214895;28;21571;-82
2023/08/26 13:33:18;;;;;;;7.40;6.90;;;25.60;55.20;;;;;;6216181;28;20246;-80
2023/08/26 13:36:21;;;;;;;5.50;5.20;;;25.50;55.80;;;;;;6210496;28;20711;-80
2023/08/26 13:39:26;;;;;;;5.07;4.60;;;25.60;55.30;;;;;;6207533;28;20293;-80
2023/08/26 13:42:30;;;;;;;6.13;5.73;;;25.80;55.80;;;;;;6205958;28;20235;-80
2023/08/26 13:45:34;;;;;;;5.40;5.20;;;25.60;55.70;;;;;;6212310;28;20307;-82
2023/08/26 13:48:37;;;;;;;6.57;5.50;;;25.40;56.00;;;;;;6200973;28;20302;-80
2023/08/26 13:51:40;;;;;;;5.60;5.20;;;25.30;56.10;;;;;;6211406;28;20803;-80
2023/08/26 13:54:44;;;;;;;5.67;5.30;;;25.40;56.00;;;;;;6191761;28;20235;-81
2023/08/26 13:57:49;;;;;;;5.77;5.37;;;25.40;56.20;;;;;;6193770;28;20242;-82
2023/08/26 14:00:56;;;;;;;5.37;4.93;;;25.20;56.00;;;;;;6200024;28;20728;-83
2023/08/26 14:04:01;;;;;;;5.10;4.93;;;24.90;56.20;;;;;;6214232;28;20240;-82
2023/08/26 14:07:04;;;;;;;5.30;4.90;;;25.00;54.90;;;;;;6204799;28;20255;-81
2023/08/26 14:10:09;;;;;;;5.87;5.33;;;24.40;54.80;;;;;;6210283;28;20238;-83
2023/08/26 14:13:13;;;;;;;5.40;4.90;;;24.40;55.40;;;;;;6207507;28;20238;-80
2023/08/26 14:16:16;;;;;;;4.90;4.63;;;24.40;54.70;;;;;;6218946;28;20708;-82
2023/08/26 14:19:20;;;;;;;5.43;5.17;;;24.40;54.70;;;;;;6197518;28;20263;-81
2023/08/26 14:22:23;;;;;;;6.27;4.23;;;24.20;55.20;;;;;;6208589;28;20259;-81
2023/08/26 14:25:26;;;;;;;5.43;4.93;;;24.20;55.30;;;;;;6217562;28;20242;-84
2023/08/26 14:28:30;;;;;;;4.23;4.13;;;24.10;55.20;;;;;;6212968;28;20255;-82
2023/08/26 14:31:33;;;;;;;4.60;4.30;;;24.00;55.30;;;;;;6218905;28;20247;-79
2023/08/26 14:34:36;;;;;;;4.97;4.70;;;24.00;55.30;;;;;;6222959;28;20262;-80
2023/08/26 14:37:40;;;;;;;4.83;4.53;;;23.80;54.90;;;;;;6215420;28;20322;-83
2023/08/26 14:40:43;;;;;;;4.57;4.37;;;23.90;55.90;;;;;;6223736;28;20243;-80
2023/08/26 14:43:49;;;;;;;3.67;3.47;;;24.00;53.90;;;;;;6227787;28;20744;-82
2023/08/26 14:46:52;;;;;;;4.20;3.40;;;23.80;53.70;;;;;;6209052;28;20272;-81
2023/08/26 14:49:56;;;;;;;3.60;3.50;;;23.80;53.70;;;;;;6203988;28;20239;-80
2023/08/26 14:52:59;;;;;;;3.97;3.70;;;23.80;53.90;;;;;;6208375;28;20326;-82
2023/08/26 14:56:07;;;;;;;3.57;3.40;;;23.80;54.00;;;;;;6202240;28;20293;-80
2023/08/26 14:59:11;;;;;;;3.40;3.10;;;23.70;53.90;;;;;;6198681;28;20238;-83
2023/08/26 15:02:16;;;;;;;3.20;3.00;;;23.60;52.50;;;;;;6207381;28;20326;-78
2023/08/26 15:05:19;;;;;;;3.13;3.03;;;23.30;53.40;;;;;;6202751;28;20246;-79
2023/08/26 15:08:22;;;;;;;3.50;3.40;;;23.20;53.20;;;;;;6203487;28;20333;-81
2023/08/26 15:11:25;;;;;;;6.97;3.70;;;23.10;53.20;;;;;;6207657;28;20246;-80
2023/08/26 15:14:30;;;;;;;3.37;3.23;;;23.10;53.80;;;;;;6211746;28;20259;-80
2023/08/26 15:17:33;;;;;;;9.53;3.50;;;23.10;53.60;;;;;;6207328;28;20297;-80
2023/08/26 15:20:36;;;;;;;3.70;3.40;;;23.00;53.40;;;;;;6210362;28;20641;-79
2023/08/26 15:23:39;;;;;;;4.57;3.50;;;23.10;53.30;;;;;;6214906;28;20246;-80
2023/08/26 15:26:43;;;;;;;15.40;4.70;;;23.10;52.60;;;;;;6211429;28;20321;-80
2023/08/26 15:29:47;;;;;;;16.53;4.07;;;22.90;52.20;;;;;;6202800;28;20275;-79
2023/08/26 15:32:53;;;;;;;3.10;2.97;;;22.70;51.70;;;;;;6197012;28;20327;-80
2023/08/26 15:35:57;;;;;;;6.33;3.30;;;22.60;51.90;;;;;;6204231;28;20244;-79
2023/08/26 15:39:00;;;;;;;5.27;2.87;;;22.60;52.40;;;;;;6186749;28;20316;-80
2023/08/26 15:42:03;;;;;;;5.63;2.90;;;22.60;51.90;;;;;;6187809;28;20711;-80
2023/08/26 15:45:09;;;;;;;65.23;6.30;;;22.60;52.20;;;;;;6197595;28;20239;-79
2023/08/26 15:48:12;;;;;;;20.13;3.97;;;22.60;52.40;;;;;;6179849;28;20830;-79
2023/08/26 15:51:15;;;;;;;2.67;2.47;;;22.50;52.50;;;;;;6197425;28;20243;-80
2023/08/26 15:54:19;;;;;;;2.40;2.33;;;22.50;52.30;;;;;;6198557;28;20306;-81
2023/08/26 15:57:23;;;;;;;2.63;2.53;;;22.40;52.40;;;;;;6218158;28;20823;-82